< Typhoon 196419 1964 Season Typhoon 196421 >
Typhoon 196420 (WILDA)
General InformationTrack Information on Google Maps || NewsDisaster Info.ResourceGoogle EarthGE AnimationAtom FeedGeoJSON
Detalied Best Track (Time Zone = UTC)
Year Month Day Hour Lat. Long. Pressure (hPa) Wind (kt) Class Image Chart
1964 9 16 18 11.7 149.3 1008 0 2 -- Chart
1964 9 17 00 12.6 148.5 1010 0 2 -- Chart
1964 9 17 06 13.3 147.8 1008 0 2 -- Chart
1964 9 17 12 14.0 147.1 1010 0 2 -- Chart
1964 9 17 18 14.9 146.7 1008 0 2 -- Chart
1964 9 18 00 15.5 146.0 1008 0 2 -- Chart
1964 9 18 06 16.0 145.1 1006 0 2 -- Chart
1964 9 18 12 16.5 144.5 1006 0 2 -- Chart
1964 9 18 18 17.0 144.1 1006 0 2 -- Chart
1964 9 19 00 17.6 144.0 1002 0 2 -- Chart
1964 9 19 06 18.4 143.4 998 0 9 -- Chart
1964 9 19 12 18.9 142.6 990 0 9 -- Chart
1964 9 19 18 19.4 142.2 985 0 9 -- Chart
1964 9 20 00 19.6 141.6 975 0 9 -- Chart
1964 9 20 06 20.0 140.8 960 0 9 -- Chart
1964 9 20 12 20.1 140.2 940 0 9 -- Chart
1964 9 20 18 20.2 139.6 920 0 9 -- Chart
1964 9 21 00 20.6 138.8 900 0 9 -- Chart
1964 9 21 06 21.2 137.9 895 0 9 -- Chart
1964 9 21 12 21.9 137.0 895 0 9 -- Chart
1964 9 21 18 22.5 136.1 895 0 9 -- Chart
1964 9 22 00 23.4 135.1 920 0 9 -- Chart
1964 9 22 06 24.2 134.5 920 0 9 -- Chart
1964 9 22 12 25.0 133.4 920 0 9 -- Chart
1964 9 22 18 25.5 132.5 920 0 9 -- Chart
1964 9 23 00 26.1 131.5 930 0 9 -- Chart
1964 9 23 06 26.9 131.0 930 0 9 -- Chart
1964 9 23 12 27.6 130.8 930 0 9 -- Chart
1964 9 23 18 28.4 130.4 930 0 9 -- Chart
1964 9 24 00 29.5 130.1 930 0 9 -- Chart
1964 9 24 06 30.9 130.2 940 0 9 -- Chart
1964 9 24 12 32.1 131.5 950 0 9 -- Chart
1964 9 24 18 34.0 133.5 960 0 9 -- Chart
1964 9 25 00 36.4 136.4 980 0 9 -- Chart
1964 9 25 06 39.0 141.7 980 0 9 -- Chart
1964 9 25 12 42.2 148.0 984 0 9 -- Chart
1964 9 25 18 45.0 155.0 984 0 6 -- Chart
1964 9 26 00 47.0 162.0 978 0 6 -- Chart
1964 9 26 06 48.3 166.0 968 0 6 -- Chart
1964 9 26 12 49.4 172.0 966 0 6 -- Chart
1964 9 26 18 51.0 177.5 970 0 6 -- Chart
1964 9 27 00 52.0 182.0 970 0 6 -- Chart
Japan Meteorological Agency Best Track Data | Correction Date : 1991-07-16
< Typhoon 196419 1964 Season Typhoon 196421 >

Help